Time;durP1;ratioP1;P1;durP2;ratioP2;P2;SDS_P1;SDS_P2;PMS_P1;PMS_P2;Temp;Humidity;BMP_temperature;BMP_pressure;BME280_temperature;BME280_humidity;BME280_pressure;Samples;Min_cycle;Max_cycle;Signal;HPM_P1;HPM_P2
2023/07/11 00:01:01;;;;;;;;;14.00;12.40;;;;;25.17;100.00;98688.19;6271420;27;97092;-67
2023/07/11 00:04:06;;;;;;;;;15.00;12.60;;;;;25.11;100.00;98694.19;6253127;27;96609;-67
2023/07/11 00:07:09;;;;;;;;;14.60;14.00;;;;;25.11;100.00;98695.00;6268285;27;96890;-66
2023/07/11 00:10:15;;;;;;;;;13.00;13.00;;;;;24.96;100.00;98690.75;6263422;27;96521;-67
2023/07/11 00:13:18;;;;;;;;;16.00;14.60;;;;;25.01;100.00;98698.06;6258315;27;97077;-67
2023/07/11 00:16:21;;;;;;;;;17.50;16.50;;;;;24.95;100.00;98685.53;6289539;27;96293;-66
2023/07/11 00:19:26;;;;;;;;;14.60;14.00;;;;;25.06;100.00;98697.09;6273564;27;96955;-67
2023/07/11 00:22:30;;;;;;;;;14.00;13.00;;;;;24.95;100.00;98693.81;6263572;27;96614;-66
2023/07/11 00:25:33;;;;;;;;;15.00;14.60;;;;;25.06;100.00;98692.41;6261949;27;96914;-66
2023/07/11 00:28:36;;;;;;;;;13.80;13.80;;;;;24.97;100.00;98681.31;6289141;27;97491;-67
2023/07/11 00:31:40;;;;;;;;;16.25;14.25;;;;;25.00;100.00;98696.44;6286215;27;96589;-66
2023/07/11 00:34:45;;;;;;;;;17.60;16.60;;;;;25.00;100.00;98696.44;6269943;27;96825;-66
2023/07/11 00:37:48;;;;;;;;;14.00;12.80;;;;;24.97;100.00;98695.09;6270976;27;98259;-66
2023/07/11 00:40:52;;;;;;;;;13.00;12.00;;;;;24.93;100.00;98685.03;6289640;27;96551;-66
2023/07/11 00:43:55;;;;;;;;;17.00;16.00;;;;;24.94;100.00;98692.19;6271206;27;97144;-67
2023/07/11 00:46:58;;;;;;;;;14.00;13.00;;;;;24.86;100.00;98687.44;6252675;27;96816;-66
2023/07/11 00:50:06;;;;;;;;;15.00;14.00;;;;;24.87;100.00;98700.13;6268709;27;96605;-67
2023/07/11 00:53:10;;;;;;;;;15.20;14.20;;;;;24.79;100.00;98701.69;6288536;27;96412;-66
2023/07/11 00:56:21;;;;;;;;;17.25;15.25;;;;;24.79;100.00;98709.94;6268594;27;96862;-66
2023/07/11 00:59:24;;;;;;;;;15.20;14.80;;;;;24.73;100.00;98699.41;6270255;27;96597;-67
2023/07/11 01:02:29;;;;;;;;;16.00;13.40;;;;;24.74;100.00;98703.75;6252705;27;97136;-66
2023/07/11 01:05:33;;;;;;;;;15.50;14.00;;;;;24.63;100.00;98696.94;6286540;27;96351;-66
2023/07/11 01:08:37;;;;;;;;;15.00;15.00;;;;;24.51;100.00;98697.53;6287826;27;96947;-66
2023/07/11 01:11:54;;;;;;;;;17.00;15.40;;;;;24.54;100.00;98700.44;6268620;27;96853;-67
2023/07/11 01:14:57;;;;;;;;;18.25;16.75;;;;;24.46;100.00;98694.91;6288331;27;96528;-66
2023/07/11 01:18:00;;;;;;;;;17.00;16.60;;;;;24.44;100.00;98691.63;6288169;27;96661;-66
2023/07/11 01:21:06;;;;;;;;;13.00;13.00;;;;;24.49;100.00;98695.06;6242617;27;98482;-67
2023/07/11 01:24:11;;;;;;;;;15.00;14.60;;;;;24.51;100.00;98697.53;6262603;27;96326;-66
2023/07/11 01:27:15;;;;;;;;;16.40;15.40;;;;;24.51;100.00;98689.25;6250591;27;96871;-66
2023/07/11 01:30:21;;;;;;;;;16.60;15.20;;;;;24.45;100.00;98685.81;6242562;27;96460;-66
2023/07/11 01:33:26;;;;;;;;;16.00;14.80;;;;;24.45;100.00;98665.72;6259650;27;96636;-66
2023/07/11 01:36:30;;;;;;;;;19.80;17.80;;;;;24.65;100.00;98686.38;6241534;27;96798;-66
2023/07/11 01:39:34;;;;;;;;;16.20;15.20;;;;;24.54;100.00;98691.34;6259030;27;96930;-66
2023/07/11 01:42:39;;;;;;;;;16.00;15.80;;;;;24.50;100.00;98691.19;6262499;27;96444;-66
2023/07/11 01:45:43;;;;;;;;;16.75;16.00;;;;;24.56;100.00;98695.44;6254980;27;96346;-66
2023/07/11 01:48:46;;;;;;;;;17.00;16.00;;;;;24.59;100.00;98697.56;6242953;27;96667;-66
2023/07/11 01:51:49;;;;;;;;;17.00;17.00;;;;;24.55;100.00;98698.50;6246259;27;96516;-66
2023/07/11 01:54:54;;;;;;;;;16.40;15.40;;;;;24.59;100.00;98697.56;6260466;27;96398;-66
2023/07/11 01:57:57;;;;;;;;;14.60;14.00;;;;;24.61;100.00;98702.75;6261985;27;96866;-66
2023/07/11 02:01:01;;;;;;;;;16.60;15.60;;;;;24.60;100.00;98699.19;6254379;27;96689;-66
2023/07/11 02:04:04;;;;;;;;;17.00;16.40;;;;;24.49;100.00;98702.53;6244009;27;96150;-66
2023/07/11 02:07:08;;;;;;;;;16.80;15.20;;;;;24.52;100.00;98699.97;6226080;27;98779;-66
2023/07/11 02:10:13;;;;;;;;;18.00;16.00;;;;;24.56;100.00;98703.72;6233586;27;96675;-67
2023/07/11 02:13:16;;;;;;;;;17.00;15.00;;;;;24.48;100.00;98715.47;6279598;27;97566;-66
2023/07/11 02:16:19;;;;;;;;;15.40;15.40;;;;;24.45;100.00;98713.38;6279152;27;96630;-66
2023/07/11 02:19:25;;;;;;;;;17.00;17.00;;;;;24.41;100.00;98703.31;6289618;27;97048;-67
2023/07/11 02:22:28;;;;;;;;;18.00;17.40;;;;;24.19;100.00;98708.88;6273342;27;97100;-66
2023/07/11 02:25:32;;;;;;;;;16.67;15.00;;;;;24.21;100.00;98703.84;6291490;27;96496;-66
2023/07/11 02:28:36;;;;;;;;;17.20;16.00;;;;;24.22;100.00;98711.78;6273046;27;96901;-66
2023/07/11 02:31:39;;;;;;;;;15.00;15.00;;;;;24.15;100.00;98719.66;6285692;27;97510;-66
2023/07/11 02:34:42;;;;;;;;;19.00;18.00;;;;;24.13;100.00;98722.75;6250126;27;97015;-67
2023/07/11 02:37:45;;;;;;;;;17.00;16.00;;;;;24.09;100.00;98727.22;6251859;27;96654;-67
2023/07/11 02:40:50;;;;;;;;;19.00;17.00;;;;;24.10;100.00;98734.38;6291025;27;96603;-66
2023/07/11 02:43:54;;;;;;;;;17.40;16.40;;;;;24.00;100.00;98731.84;6275301;27;96857;-66
2023/07/11 02:46:57;;;;;;;;;20.00;17.00;;;;;24.07;100.00;98732.25;6265860;27;96500;-66
2023/07/11 02:50:00;;;;;;;;;18.00;17.00;;;;;23.93;100.00;98728.75;6265721;27;96435;-66
2023/07/11 02:53:03;;;;;;;;;18.00;16.00;;;;;23.91;100.00;98738.44;6247627;27;96480;-66
2023/07/11 02:56:08;;;;;;;;;15.80;14.80;;;;;23.76;100.00;98717.59;6247439;27;96379;-66
2023/07/11 02:59:11;;;;;;;;;19.00;17.00;;;;;23.81;100.00;98735.91;6265212;27;97920;-66
2023/07/11 03:02:14;;;;;;;;;18.40;17.00;;;;;23.78;100.00;98729.13;6247302;27;98761;-66
2023/07/11 03:05:17;;;;;;;;;18.00;16.00;;;;;23.80;100.00;98732.34;6263945;27;97051;-66
2023/07/11 03:08:20;;;;;;;;;16.00;15.25;;;;;23.88;100.00;98741.81;6264820;27;96420;-66
2023/07/11 03:11:25;;;;;;;;;17.00;15.00;;;;;23.88;100.00;98739.88;6263039;27;96692;-66
2023/07/11 03:14:28;;;;;;;;;18.00;17.00;;;;;23.99;100.00;98743.22;6239923;27;96721;-66
2023/07/11 03:17:31;;;;;;;;;17.40;16.00;;;;;23.96;100.00;98749.31;6247275;27;97080;-66
2023/07/11 03:20:36;;;;;;;;;16.25;16.00;;;;;23.93;100.00;98755.47;6270017;27;96814;-66
2023/07/11 03:23:39;;;;;;;;;18.00;15.00;;;;;23.90;100.00;98750.56;6262330;27;97559;-66
2023/07/11 03:26:45;;;;;;;;;18.75;15.75;;;;;23.94;100.00;98755.16;6255092;27;96671;-66
2023/07/11 03:29:48;;;;;;;;;17.00;15.00;;;;;23.99;100.00;98746.78;6266882;27;98519;-66
2023/07/11 03:32:51;;;;;;;;;17.20;15.20;;;;;24.04;100.00;98740.34;6246525;27;98634;-66
2023/07/11 03:35:54;;;;;;;;;17.80;16.00;;;;;23.95;100.00;98756.75;6268807;27;96940;-66
2023/07/11 03:38:57;;;;;;;;;17.80;17.40;;;;;23.90;100.00;98756.06;6254185;27;98443;-67
2023/07/11 03:42:02;;;;;;;;;19.75;18.00;;;;;23.99;100.00;98757.78;6264572;27;96670;-66
2023/07/11 03:45:07;;;;;;;;;18.20;16.80;;;;;23.94;100.00;98762.59;6245578;27;98521;-66
2023/07/11 03:48:10;;;;;;;;;19.00;18.00;;;;;23.94;100.00;98755.16;6262216;27;99177;-66
2023/07/11 03:51:14;;;;;;;;;19.25;17.00;;;;;24.08;100.00;98757.84;6277017;27;96518;-66
2023/07/11 03:54:17;;;;;;;;;20.80;18.80;;;;;23.96;100.00;98741.88;6275025;27;97626;-65
2023/07/11 03:57:22;;;;;;;;;20.00;17.00;;;;;24.05;100.00;98763.97;6253626;27;97460;-66
2023/07/11 04:00:25;;;;;;;;;15.20;14.20;;;;;24.09;100.00;98760.28;6247597;27;97298;-67
2023/07/11 04:03:29;;;;;;;;;17.00;16.40;;;;;24.01;100.00;98733.50;6265892;27;96866;-66
2023/07/11 04:06:32;;;;;;;;;19.00;17.60;;;;;24.12;100.00;98753.34;6245644;27;98656;-66
2023/07/11 04:09:40;;;;;;;;;19.40;18.00;;;;;23.95;100.00;98769.72;6275903;27;97843;-66
2023/07/11 04:12:44;;;;;;;;;14.00;14.00;;;;;24.09;100.00;98774.03;6271727;27;97270;-66
2023/07/11 04:15:47;;;;;;;;;20.00;19.00;;;;;24.02;100.00;98772.88;6255452;27;97582;-67
2023/07/11 04:18:51;;;;;;;;;17.00;17.00;;;;;23.91;100.00;98771.47;6271120;27;96941;-66
2023/07/11 04:21:54;;;;;;;;;17.00;16.00;;;;;24.05;100.00;98773.03;6281991;27;96966;-66
2023/07/11 04:24:57;;;;;;;;;16.40;15.00;;;;;23.97;100.00;98768.28;6228476;27;98519;-66
2023/07/11 04:28:01;;;;;;;;;19.00;18.00;;;;;24.10;100.00;98780.38;6246635;27;99593;-66
2023/07/11 04:31:05;;;;;;;;;17.00;14.00;;;;;24.06;100.00;98787.63;6245267;27;96672;-67
2023/07/11 04:34:08;;;;;;;;;16.00;15.00;;;;;23.95;100.00;98765.03;6246294;27;98484;-66
2023/07/11 04:37:12;;;;;;;;;15.60;14.60;;;;;24.00;100.00;98775.91;6289135;27;96321;-66
2023/07/11 04:40:16;;;;;;;;;16.40;15.40;;;;;23.91;100.00;98779.72;6273925;27;97744;-66
2023/07/11 04:43:20;;;;;;;;;15.00;14.00;;;;;24.01;100.00;98782.25;6257740;27;96868;-66
2023/07/11 04:46:23;;;;;;;;;18.00;17.00;;;;;24.16;100.00;98795.66;6270761;27;97301;-66
2023/07/11 04:49:27;;;;;;;;;15.00;14.25;;;;;24.26;100.00;98797.38;6288877;27;96370;-67
2023/07/11 04:52:30;;;;;;;;;16.00;15.20;;;;;24.19;100.00;98789.53;6268400;27;99108;-66
2023/07/11 04:55:33;;;;;;;;;16.00;15.25;;;;;24.17;100.00;98800.88;6273564;27;97821;-66
2023/07/11 04:58:38;;;;;;;;;17.60;17.20;;;;;24.18;100.00;98798.94;6264724;27;96885;-66
2023/07/11 05:01:41;;;;;;;;;15.00;15.00;;;;;24.06;100.00;98796.72;6237784;27;96717;-65
2023/07/11 05:04:45;;;;;;;;;21.00;18.00;;;;;24.01;100.00;98805.09;6285278;27;96953;-66
2023/07/11 05:07:48;;;;;;;;;17.00;16.00;;;;;24.12;100.00;98809.25;6278018;27;96614;-66
2023/07/11 05:10:52;;;;;;;;;18.33;16.33;;;;;24.30;100.00;98809.38;6263403;27;96658;-66
2023/07/11 05:13:57;;;;;;;;;16.25;16.00;;;;;24.39;100.00;98813.84;6254085;27;96728;-67
2023/07/11 05:17:00;;;;;;;;;17.75;16.00;;;;;24.46;100.00;98808.72;6287236;27;96390;-67
2023/07/11 05:20:04;;;;;;;;;17.00;15.20;;;;;24.72;100.00;98810.81;6268668;27;96538;-67
2023/07/11 05:23:07;;;;;;;;;17.00;16.00;;;;;24.77;100.00;98816.19;6244912;27;96297;-67
2023/07/11 05:26:11;;;;;;;;;17.00;15.00;;;;;24.79;100.00;98806.47;6241897;27;96732;-66
2023/07/11 05:29:15;;;;;;;;;17.60;14.60;;;;;24.97;100.00;98816.47;6269030;27;96590;-66
2023/07/11 05:32:19;;;;;;;;;16.00;15.00;;;;;25.10;100.00;98822.22;6285837;27;96955;-67
2023/07/11 05:35:22;;;;;;;;;17.50;16.50;;;;;25.16;100.00;98810.72;6286340;27;96556;-66
2023/07/11 05:38:25;;;;;;;;;17.60;16.60;;;;;25.22;100.00;98801.16;6283740;27;96448;-66
2023/07/11 05:41:28;;;;;;;;;18.25;17.25;;;;;25.28;100.00;98808.16;6262326;27;96693;-67
2023/07/11 05:44:33;;;;;;;;;16.67;15.67;;;;;25.34;100.00;98806.88;6264920;27;96414;-67
2023/07/11 05:47:36;;;;;;;;;21.00;17.40;;;;;25.57;100.00;98813.13;6287692;27;96278;-67
2023/07/11 05:50:39;;;;;;;;;17.75;16.50;;;;;25.44;100.00;98797.50;6259651;27;96614;-67
2023/07/11 05:53:42;;;;;;;;;18.25;17.25;;;;;25.58;100.00;98802.91;6243829;27;96743;-67
2023/07/11 05:56:45;;;;;;;;;14.25;13.25;;;;;25.92;100.00;98824.22;6262126;27;96303;-67
2023/07/11 05:59:50;;;;;;;;;17.40;16.80;;;;;26.04;100.00;98822.47;6262149;27;97559;-66
2023/07/11 06:02:53;;;;;;;;;17.60;16.00;;;;;26.10;100.00;98823.91;6243643;27;100544;-67
2023/07/11 06:06:00;;;;;;;;;15.00;13.00;;;;;26.30;100.00;98823.28;6226445;27;98441;-67
2023/07/11 06:09:04;;;;;;;;;16.00;15.00;;;;;26.24;100.00;98830.09;6251755;27;97003;-67
2023/07/11 06:12:08;;;;;;;;;14.80;14.20;;;;;26.41;100.00;98829.28;6283429;27;96515;-67
2023/07/11 06:15:13;;;;;;;;;15.00;14.60;;;;;26.40;100.00;98829.59;6261712;27;97214;-67
2023/07/11 06:18:16;;;;;;;;;16.80;14.80;;;;;26.27;100.00;98829.47;6237399;27;98422;-66
2023/07/11 06:21:19;;;;;;;;;15.25;14.25;;;;;26.48;100.00;98832.38;6271917;27;96455;-66
2023/07/11 06:24:23;;;;;;;;;15.40;15.00;;;;;26.76;100.00;98835.56;6272162;27;97121;-66
2023/07/11 06:27:26;;;;;;;;;12.60;12.60;;;;;26.62;100.00;98827.47;6276978;27;96703;-66
2023/07/11 06:30:30;;;;;;;;;14.00;13.00;;;;;26.69;100.00;98824.19;6258311;27;97163;-67
2023/07/11 06:33:34;;;;;;;;;16.00;15.00;;;;;26.53;100.00;98812.88;6257736;27;97540;-67
2023/07/11 06:36:37;;;;;;;;;14.00;13.00;;;;;26.60;100.00;98828.94;6265665;27;96536;-67
2023/07/11 06:39:40;;;;;;;;;15.00;14.50;;;;;26.68;100.00;98828.91;6268231;27;96571;-67
2023/07/11 06:42:44;;;;;;;;;15.60;14.00;;;;;26.78;100.00;98818.66;6253396;27;96917;-67
2023/07/11 06:45:50;;;;;;;;;14.00;12.25;;;;;26.91;100.00;98821.25;6243015;27;97547;-67
2023/07/11 06:48:54;;;;;;;;;14.00;14.00;;;;;27.10;100.00;98820.84;6243268;27;96554;-67
2023/07/11 06:51:58;;;;;;;;;12.00;11.25;;;;;27.20;100.00;98825.22;6242676;27;97422;-67
2023/07/11 06:55:01;;;;;;;;;13.00;12.00;;;;;27.22;100.00;98820.16;6250992;27;98733;-67
2023/07/11 06:58:04;;;;;;;;;11.00;10.60;;;;;27.22;100.00;98812.63;6269247;27;97293;-66
2023/07/11 07:01:10;;;;;;;;;14.40;12.40;;;;;27.47;100.00;98814.47;6269610;27;97004;-67
2023/07/11 07:04:33;;;;;;;;;13.40;11.60;;;;;27.47;100.00;98811.69;6275058;27;96535;-67
2023/07/11 07:07:36;;;;;;;;;14.00;14.00;;;;;27.48;100.00;98813.31;6261480;27;99179;-67
2023/07/11 07:10:39;;;;;;;;;13.33;11.33;;;;;27.71;100.00;98821.38;6266334;27;96689;-67
2023/07/11 07:13:42;;;;;;;;;10.60;10.00;;;;;27.91;100.00;98815.84;6271075;27;96516;-67
2023/07/11 07:17:06;;;;;;;;;13.50;12.50;;;;;28.07;100.00;98824.38;6255009;27;96568;-67
2023/07/11 07:20:10;;;;;;;;;13.00;12.00;;;;;28.04;100.00;98829.78;6264222;27;97500;-67
2023/07/11 07:23:14;;;;;;;;;13.00;13.00;;;;;28.13;100.00;98822.22;6262325;27;97106;-66
2023/07/11 07:26:18;;;;;;;;;12.00;11.00;;;;;28.35;100.00;98822.69;6249099;27;96698;-66
2023/07/11 07:29:22;;;;;;;;;14.00;13.00;;;;;28.19;100.00;98816.16;6253927;27;98629;-67
2023/07/11 07:32:26;;;;;;;;;11.60;11.40;;;;;28.05;100.00;98815.59;6285793;27;96953;-67
2023/07/11 07:35:30;;;;;;;;;12.50;11.50;;;;;28.04;100.00;98815.94;6289567;27;96408;-66
2023/07/11 07:38:34;;;;;;;;;12.00;11.50;;;;;28.33;100.00;98811.13;6255217;27;98369;-67
2023/07/11 07:41:37;;;;;;;;;11.00;11.00;;;;;28.44;100.00;98817.84;6268503;27;96520;-67
2023/07/11 07:44:40;;;;;;;;;10.60;10.60;;;;;28.52;100.00;98818.94;6270725;27;98471;-67
2023/07/11 07:47:45;;;;;;;;;13.00;13.00;;;;;28.49;100.00;98819.63;6264882;27;96718;-67
2023/07/11 07:50:48;;;;;;;;;11.60;9.80;;;;;28.75;100.00;98817.41;6266437;27;96756;-68
2023/07/11 07:53:51;;;;;;;;;12.60;12.00;;;;;29.00;100.00;98821.06;6276506;27;96320;-67
2023/07/11 07:56:54;;;;;;;;;12.00;11.00;;;;;29.39;100.00;98816.84;6256775;27;99437;-67
2023/07/11 07:59:58;;;;;;;;;10.50;10.50;;;;;29.69;100.00;98807.09;6275147;27;96313;-67
2023/07/11 08:03:02;;;;;;;;;10.00;9.00;;;;;29.82;97.90;98820.94;6264605;27;96363;-67
2023/07/11 08:06:07;;;;;;;;;13.00;11.00;;;;;29.79;98.43;98816.91;6257306;27;98446;-67
2023/07/11 08:09:19;;;;;;;;;11.75;11.75;;;;;29.80;98.29;98814.94;6271370;27;97604;-67
2023/07/11 08:12:22;;;;;;;;;14.00;13.00;;;;;29.69;97.84;98820.16;6289139;27;96694;-67
2023/07/11 08:15:25;;;;;;;;;12.40;12.00;;;;;29.79;96.85;98824.44;6288591;27;96422;-67
2023/07/11 08:18:30;;;;;;;;;13.00;11.75;;;;;29.91;94.60;98821.69;6253418;27;100131;-67
2023/07/11 08:21:34;;;;;;;;;12.00;12.00;;;;;29.92;89.23;98821.31;6269725;27;96669;-67
2023/07/11 08:24:37;;;;;;;;;9.80;9.80;;;;;30.12;88.59;98833.44;6288776;27;97092;-67
2023/07/11 08:27:40;;;;;;;;;11.00;11.00;;;;;30.36;86.95;98836.13;6288993;27;96434;-67
2023/07/11 08:30:43;;;;;;;;;10.60;9.60;;;;;30.80;85.08;98828.66;6262960;27;97615;-67
2023/07/11 08:33:48;;;;;;;;;11.00;10.00;;;;;31.13;81.73;98816.41;6270130;27;96432;-67
2023/07/11 08:36:51;;;;;;;;;12.00;11.60;;;;;30.75;79.11;98820.56;6235558;27;97335;-67
2023/07/11 08:39:55;;;;;;;;;12.00;11.00;;;;;30.85;82.39;98822.00;6228603;27;96978;-67
2023/07/11 08:43:01;;;;;;;;;12.40;12.00;;;;;30.47;81.39;98825.34;6263731;27;96442;-67
2023/07/11 08:46:09;;;;;;;;;11.20;11.00;;;;;30.65;80.21;98814.69;6262970;27;96406;-66
2023/07/11 08:49:24;;;;;;;;;11.00;10.00;;;;;30.78;79.83;98819.84;6263893;27;96406;-68
2023/07/11 08:52:30;;;;;;;;;12.00;12.00;;;;;31.14;75.38;98810.47;6247097;27;97492;-67
2023/07/11 08:55:36;;;;;;;;;13.00;12.00;;;;;31.44;78.44;98815.56;6233796;27;98447;-67
2023/07/11 08:58:43;;;;;;;;;11.00;11.00;;;;;31.44;72.09;98818.34;6269936;27;96536;-67
2023/07/11 09:01:52;;;;;;;;;10.00;9.00;;;;;31.56;73.54;98819.09;6269503;27;96665;-67
2023/07/11 09:04:58;;;;;;;;;11.00;10.00;;;;;31.33;71.53;98815.31;6249233;27;97597;-67
2023/07/11 09:08:01;;;;;;;;;10.00;9.60;;;;;31.33;72.59;98821.69;6250155;27;96493;-67
2023/07/11 09:11:15;;;;;;;;;11.40;10.00;;;;;31.52;73.61;98817.38;6269967;27;96472;-68
2023/07/11 09:14:34;;;;;;;;;9.00;9.00;;;;;31.31;71.59;98820.44;6270375;27;96254;-67
2023/07/11 09:17:53;;;;;;;;;11.00;10.00;;;;;31.59;71.98;98820.34;6251794;27;96868;-67
2023/07/11 09:21:08;;;;;;;;;10.00;9.67;;;;;31.40;69.99;98819.09;6253272;27;96535;-67
2023/07/11 09:24:19;;;;;;;;;8.00;8.00;;;;;31.71;64.70;98817.47;6262086;27;96713;-67
2023/07/11 09:27:27;;;;;;;;;10.40;9.40;;;;;32.18;64.82;98832.09;6272754;27;96636;-67
2023/07/11 09:30:35;;;;;;;;;11.00;9.00;;;;;32.50;62.47;98829.94;6251317;27;97028;-67
2023/07/11 09:33:41;;;;;;;;;10.40;10.00;;;;;32.02;60.20;98825.72;6276146;27;96482;-67
2023/07/11 09:36:49;;;;;;;;;10.75;9.25;;;;;32.42;63.41;98831.00;6271925;27;96400;-67
2023/07/11 09:39:58;;;;;;;;;11.33;11.33;;;;;32.51;64.37;98828.78;6268466;27;96766;-67
2023/07/11 09:43:04;;;;;;;;;13.00;13.00;;;;;32.57;64.07;98837.66;6285633;27;97325;-67
2023/07/11 09:46:13;;;;;;;;;12.00;12.00;;;;;32.60;61.12;98840.50;6267549;27;96632;-67
2023/07/11 09:49:22;;;;;;;;;9.00;9.00;;;;;32.84;62.56;98825.44;6244005;27;97132;-67
2023/07/11 09:52:29;;;;;;;;;11.00;10.00;;;;;32.42;57.78;98816.22;6242674;27;97864;-67
2023/07/11 09:55:36;;;;;;;;;11.00;9.00;;;;;32.28;58.73;98836.28;6260752;27;96407;-67
2023/07/11 09:58:39;;;;;;;;;10.00;9.00;;;;;32.05;60.24;98836.16;6243877;27;97034;-67
2023/07/11 10:01:42;;;;;;;;;10.25;10.00;;;;;32.12;62.78;98835.53;6243987;27;96627;-67
2023/07/11 10:04:46;;;;;;;;;11.00;10.75;;;;;32.30;61.54;98833.13;6261837;27;96424;-67
2023/07/11 10:08:02;;;;;;;;;13.40;12.00;;;;;32.42;61.93;98836.56;6259727;27;96284;-66
2023/07/11 10:11:07;;;;;;;;;9.00;9.00;;;;;32.58;61.08;98839.28;6269957;27;96650;-67
2023/07/11 10:14:17;;;;;;;;;9.00;9.00;;;;;32.59;60.40;98833.34;6272834;27;96397;-68
2023/07/11 10:17:25;;;;;;;;;10.00;9.00;;;;;32.45;57.81;98846.97;6268711;27;96783;-67
2023/07/11 10:20:29;;;;;;;;;11.00;10.00;;;;;32.37;58.40;98830.47;6274559;27;96399;-67
2023/07/11 10:23:36;;;;;;;;;10.00;10.00;;;;;32.20;58.50;98831.72;6260016;27;96692;-67
2023/07/11 10:26:39;;;;;;;;;10.00;9.40;;;;;32.31;58.11;98838.31;6254410;27;96718;-67
2023/07/11 10:29:47;;;;;;;;;10.00;10.00;;;;;32.46;58.78;98840.22;6233391;27;96967;-67
2023/07/11 10:32:57;;;;;;;;;10.00;9.00;;;;;32.10;58.84;98832.28;6287270;27;96312;-67
2023/07/11 10:36:21;;;;;;;;;10.20;10.20;;;;;31.96;59.01;98829.97;6284542;27;96648;-67
2023/07/11 10:39:33;;;;;;;;;12.60;11.00;;;;;32.32;60.05;98834.38;6266230;27;96476;-67
2023/07/11 10:42:42;;;;;;;;;8.40;7.80;;;;;32.76;59.73;98832.09;6256555;27;96950;-67
2023/07/11 10:45:47;;;;;;;;;12.75;11.75;;;;;33.04;57.64;98829.00;6280350;27;96763;-67
2023/07/11 10:48:55;;;;;;;;;9.00;8.80;;;;;33.01;56.91;98824.16;6273396;27;96299;-66
2023/07/11 10:52:04;;;;;;;;;9.00;9.00;;;;;32.77;57.78;98830.91;6247653;27;96749;-67
2023/07/11 10:55:15;;;;;;;;;11.25;10.00;;;;;32.78;59.27;98828.94;6265675;27;96319;-68
2023/07/11 10:58:23;;;;;;;;;7.20;7.20;;;;;32.93;58.45;98833.59;6273694;27;96269;-67
2023/07/11 11:01:36;;;;;;;;;10.75;10.75;;;;;33.25;56.71;98828.59;6260617;27;97382;-67
2023/07/11 11:04:55;;;;;;;;;11.50;10.00;;;;;33.41;55.82;98818.09;6276370;27;96337;-67
2023/07/11 11:08:07;;;;;;;;;10.40;10.00;;;;;33.24;55.75;98821.38;6263368;27;96863;-67
2023/07/11 11:11:30;;;;;;;;;11.00;10.00;;;;;33.06;56.35;98821.06;6254134;27;96728;-67
2023/07/11 11:14:42;;;;;;;;;10.20;10.20;;;;;33.02;56.00;98814.63;6278379;27;96835;-67
2023/07/11 11:18:04;;;;;;;;;11.00;10.00;;;;;33.34;55.97;98818.78;6275083;27;96346;-68
2023/07/11 11:21:13;;;;;;;;;10.00;10.00;;;;;33.53;51.82;98821.47;6277243;27;96489;-67
2023/07/11 11:24:43;;;;;;;;;11.20;10.80;;;;;33.74;51.08;98823.03;6284241;27;96352;-67
2023/07/11 11:27:55;;;;;;;;;11.00;10.00;;;;;33.68;50.93;98816.94;6265074;27;96407;-67
2023/07/11 11:31:08;;;;;;;;;9.00;9.00;;;;;34.05;50.89;98810.69;6264881;27;96849;-67
2023/07/11 11:34:28;;;;;;;;;8.00;7.40;;;;;34.61;48.35;98816.19;6245860;27;96652;-67
2023/07/11 11:37:40;;;;;;;;;10.75;10.00;;;;;34.66;46.27;98822.25;6270644;27;97426;-67
2023/07/11 11:40:49;;;;;;;;;11.00;11.00;;;;;34.28;46.76;98815.03;6274433;27;96718;-67
2023/07/11 11:43:54;;;;;;;;;10.40;10.00;;;;;33.84;48.49;98820.38;6261452;27;96712;-67
2023/07/11 11:47:01;;;;;;;;;9.00;8.40;;;;;34.08;49.61;98813.53;6285422;27;96333;-67
2023/07/11 11:50:26;;;;;;;;;8.00;8.00;;;;;34.25;46.97;98812.19;6263321;27;97187;-68
2023/07/11 11:54:04;;;;;;;;;10.00;9.00;;;;;34.33;47.15;98811.88;6228952;27;98502;-67
2023/07/11 11:57:15;;;;;;;;;9.75;8.75;;;;;34.18;45.17;98798.09;6268927;27;96516;-68
2023/07/11 12:00:35;;;;;;;;;11.75;10.00;;;;;33.73;46.11;98819.41;6271528;27;96505;-67
2023/07/11 12:03:45;;;;;;;;;8.25;8.00;;;;;33.57;43.08;98809.56;6263279;27;96824;-68
2023/07/11 12:06:51;;;;;;;;;8.00;8.00;;;;;33.82;41.85;98810.75;6264454;27;96702;-67
2023/07/11 12:10:12;;;;;;;;;9.00;9.00;;;;;34.19;44.99;98796.91;6231416;27;96667;-67
2023/07/11 12:13:27;;;;;;;;;7.20;7.00;;;;;34.27;43.58;98807.81;6268154;27;96651;-67
2023/07/11 12:16:33;;;;;;;;;8.00;8.00;;;;;34.54;42.69;98805.75;6256478;27;96801;-68
2023/07/11 12:19:41;;;;;;;;;8.40;8.00;;;;;34.76;42.72;98790.00;6245855;27;99183;-67
2023/07/11 12:23:16;;;;;;;;;10.00;9.00;;;;;35.03;41.27;98801.88;6264066;27;96603;-68
2023/07/11 12:26:39;;;;;;;;;9.00;7.25;;;;;34.81;39.67;98817.66;6244852;27;98509;-67
2023/07/11 12:29:50;;;;;;;;;8.60;8.60;;;;;34.68;40.28;98805.91;6245722;27;96262;-68
2023/07/11 12:32:55;;;;;;;;;8.00;7.40;;;;;34.90;41.64;98808.91;6263176;27;96801;-67
2023/07/11 12:36:33;;;;;;;;;6.00;6.00;;;;;35.09;40.46;98800.31;6262370;27;97274;-67
2023/07/11 12:39:52;;;;;;;;;7.00;6.60;;;;;35.26;39.91;98802.50;6221625;27;96929;-67
2023/07/11 12:42:58;;;;;;;;;7.00;6.80;;;;;35.15;37.78;98813.56;6263917;27;96538;-67
2023/07/11 12:46:08;;;;;;;;;8.50;7.50;;;;;34.96;36.88;98801.78;6245105;27;99032;-66
2023/07/11 12:49:23;;;;;;;;;6.50;6.50;;;;;35.05;38.95;98805.06;6262562;27;96151;-67
2023/07/11 12:52:27;;;;;;;;;6.00;5.00;;;;;35.30;38.22;98799.72;6244649;27;96698;-67
2023/07/11 12:55:31;;;;;;;;;6.75;6.75;;;;;35.34;34.02;98801.34;6244428;27;96720;-67
2023/07/11 12:58:34;;;;;;;;;5.00;5.00;;;;;35.26;32.61;98798.88;6261855;27;96939;-67
2023/07/11 13:01:38;;;;;;;;;6.00;6.00;;;;;35.40;33.38;98799.00;6262515;27;96401;-67
2023/07/11 13:04:47;;;;;;;;;7.00;7.00;;;;;35.39;32.72;98780.56;6235599;28;96699;-67
2023/07/11 13:07:54;;;;;;;;;8.00;7.60;;;;;35.68;34.77;98804.84;6237243;28;96442;-67
2023/07/11 13:11:01;;;;;;;;;7.00;6.00;;;;;35.69;33.64;98809.25;6234643;27;96735;-67
2023/07/11 13:14:10;;;;;;;;;5.20;5.20;;;;;35.76;33.23;98798.09;6262146;27;96527;-67
2023/07/11 13:17:16;;;;;;;;;8.00;6.20;;;;;35.63;34.57;98802.34;6261796;27;96533;-68
2023/07/11 13:20:24;;;;;;;;;4.00;4.00;;;;;35.83;34.38;98798.13;6235414;28;97103;-67
2023/07/11 13:23:31;;;;;;;;;5.80;5.80;;;;;35.68;33.67;98798.44;6254391;27;97306;-67
2023/07/11 13:26:34;;;;;;;;;5.00;5.00;;;;;35.73;33.69;98798.84;6233104;27;98419;-67
2023/07/11 13:29:38;;;;;;;;;5.60;5.60;;;;;35.83;33.01;98795.31;6260296;27;96713;-67
2023/07/11 13:32:42;;;;;;;;;5.00;5.00;;;;;35.97;30.69;98786.97;6255945;27;96333;-67
2023/07/11 13:35:52;;;;;;;;;6.00;5.60;;;;;36.01;30.22;98790.63;6263874;27;96603;-67
2023/07/11 13:38:57;;;;;;;;;5.00;4.60;;;;;35.86;29.03;98791.75;6287895;27;96382;-67
2023/07/11 13:42:09;;;;;;;;;5.00;5.00;;;;;35.29;30.49;98801.72;6250954;27;96753;-67
2023/07/11 13:45:18;;;;;;;;;7.00;7.00;;;;;35.17;32.29;98799.22;6257074;27;98321;-67
2023/07/11 13:48:24;;;;;;;;;6.60;6.00;;;;;34.95;31.25;98786.16;6269680;27;96917;-66
2023/07/11 13:51:37;;;;;;;;;7.00;7.00;;;;;34.99;34.11;98789.81;6263812;27;99322;-65
2023/07/11 13:54:41;;;;;;;;;6.00;6.00;;;;;35.04;33.96;98787.44;6262515;27;96835;-66
2023/07/11 13:57:44;;;;;;;;;6.80;6.40;;;;;34.94;35.07;98779.78;6243120;27;96714;-66
2023/07/11 14:00:50;;;;;;;;;8.00;7.00;;;;;34.61;34.23;98788.19;6261937;27;96593;-65
2023/07/11 14:03:56;;;;;;;;;6.25;6.00;;;;;34.09;34.09;98786.34;6244069;27;96492;-66
2023/07/11 14:07:00;;;;;;;;;6.00;6.00;;;;;33.73;34.94;98785.88;6243552;27;97089;-66
2023/07/11 14:10:05;;;;;;;;;7.00;6.00;;;;;33.51;37.08;98779.13;6262383;27;96717;-66
2023/07/11 14:13:14;;;;;;;;;6.00;6.00;;;;;33.48;37.92;98788.25;6242103;27;96632;-66
2023/07/11 14:16:18;;;;;;;;;5.75;5.75;;;;;33.43;37.43;98777.41;6262135;27;96454;-65